Time;durP1;ratioP1;P1;durP2;ratioP2;P2;SDS_P1;SDS_P2;PMS_P1;PMS_P2;Temp;Humidity;BMP_temperature;BMP_pressure;BME280_temperature;BME280_humidity;BME280_pressure;Samples;Min_cycle;Max_cycle;Signal;HPM_P1;HPM_P2
2023/04/25 00:00:12;;;;;;;5.03;4.03;;;8.80;99.90;;;;;;6231334;28;20065;-81
2023/04/25 00:03:14;;;;;;;6.63;3.92;;;8.70;99.90;;;;;;6230068;28;20101;-82
2023/04/25 00:06:15;;;;;;;3.90;3.60;;;8.70;99.90;;;;;;6230330;28;20567;-81
2023/04/25 00:09:17;;;;;;;5.43;4.68;;;8.60;99.90;;;;;;6227268;28;20065;-81
2023/04/25 00:12:21;;;;;;;5.82;4.63;;;8.60;99.90;;;;;;6245408;28;20050;-81
2023/04/25 00:15:24;;;;;;;4.53;4.10;;;8.60;99.90;;;;;;6252955;28;20524;-80
2023/04/25 00:18:28;;;;;;;5.68;4.63;;;8.70;99.90;;;;;;6253371;28;20045;-81
2023/04/25 00:21:31;;;;;;;5.60;4.68;;;8.70;99.90;;;;;;6253622;28;20826;-82
2023/04/25 00:24:32;;;;;;;5.43;4.25;;;8.70;99.90;;;;;;6239638;28;20483;-81
2023/04/25 00:27:36;;;;;;;4.90;3.75;;;8.70;99.90;;;;;;6228841;28;20050;-81
2023/04/25 00:30:38;;;;;;;4.20;3.80;;;8.80;99.90;;;;;;6227972;28;20042;-82
2023/04/25 00:33:40;;;;;;;4.47;4.03;;;8.80;99.90;;;;;;6228260;28;20748;-81
2023/04/25 00:36:41;;;;;;;3.80;3.50;;;8.80;99.90;;;;;;6230160;28;20061;-81
2023/04/25 00:39:43;;;;;;;5.63;3.50;;;8.80;99.90;;;;;;6229214;28;20042;-80
2023/04/25 00:42:47;;;;;;;6.22;4.88;;;8.80;99.90;;;;;;6229485;28;20408;-81
2023/04/25 00:45:49;;;;;;;3.75;3.42;;;8.80;99.90;;;;;;6228253;28;20045;-81
2023/04/25 00:48:51;;;;;;;3.10;2.60;;;8.80;99.90;;;;;;6229238;28;20050;-81
2023/04/25 00:51:53;;;;;;;3.88;3.58;;;8.80;99.90;;;;;;6228379;28;20050;-81
2023/04/25 00:54:55;;;;;;;4.85;3.38;;;8.70;99.90;;;;;;6229278;28;20049;-81
2023/04/25 00:57:58;;;;;;;6.05;4.22;;;8.70;99.90;;;;;;6248305;28;20429;-81
2023/04/25 01:01:01;;;;;;;7.45;4.55;;;8.70;99.90;;;;;;6254380;28;20056;-81
2023/04/25 01:04:03;;;;;;;6.45;4.80;;;8.80;99.90;;;;;;6254622;28;20053;-81
2023/04/25 01:07:05;;;;;;;4.85;4.40;;;8.90;99.90;;;;;;6255053;28;20527;-81
2023/04/25 01:10:08;;;;;;;4.05;3.75;;;8.90;99.90;;;;;;6254767;28;20055;-81
2023/04/25 01:13:11;;;;;;;6.38;5.78;;;8.90;99.90;;;;;;6254598;28;20061;-81
2023/04/25 01:16:13;;;;;;;4.22;3.83;;;8.90;99.90;;;;;;6255952;28;20046;-81
2023/04/25 01:19:17;;;;;;;5.22;3.97;;;8.80;99.90;;;;;;6258321;28;20049;-81
2023/04/25 01:22:21;;;;;;;5.50;4.28;;;8.90;99.90;;;;;;6271587;28;20061;-81
2023/04/25 01:25:23;;;;;;;5.78;4.65;;;8.90;99.90;;;;;;6254251;28;20488;-81
2023/04/25 01:28:24;;;;;;;4.90;4.50;;;8.90;99.90;;;;;;6253799;28;20423;-81
2023/04/25 01:31:27;;;;;;;4.80;3.58;;;9.00;99.90;;;;;;6253879;28;20048;-81
2023/04/25 01:34:29;;;;;;;5.28;3.83;;;9.00;99.90;;;;;;6254389;28;20045;-82
2023/04/25 01:37:32;;;;;;;3.92;3.63;;;8.90;99.90;;;;;;6246490;28;20042;-81
2023/04/25 01:40:35;;;;;;;4.32;3.92;;;8.90;99.90;;;;;;6229812;28;20073;-81
2023/04/25 01:43:37;;;;;;;4.82;3.70;;;8.90;99.90;;;;;;6228135;28;20046;-81
2023/04/25 01:46:39;;;;;;;5.32;4.35;;;9.00;99.90;;;;;;6228456;28;20046;-81
2023/04/25 01:49:41;;;;;;;5.10;4.60;;;9.00;99.90;;;;;;6228692;28;20136;-81
2023/04/25 01:52:44;;;;;;;5.63;3.65;;;9.10;99.90;;;;;;6229420;28;20734;-81
2023/04/25 01:55:45;;;;;;;8.20;5.15;;;9.10;99.90;;;;;;6227591;28;20045;-81
2023/04/25 01:58:47;;;;;;;4.35;3.95;;;9.10;99.90;;;;;;6228776;28;20053;-81
2023/04/25 02:01:49;;;;;;;5.32;4.50;;;9.10;99.90;;;;;;6229581;28;20050;-81
2023/04/25 02:04:50;;;;;;;6.30;4.03;;;9.20;99.90;;;;;;6229653;28;20058;-82
2023/04/25 02:07:53;;;;;;;4.18;3.78;;;9.10;99.90;;;;;;6228687;28;20045;-81
2023/04/25 02:10:55;;;;;;;6.28;3.70;;;9.20;99.90;;;;;;6230496;28;20046;-81
2023/04/25 02:13:57;;;;;;;8.85;5.03;;;9.20;99.90;;;;;;6230668;28;20053;-81
2023/04/25 02:16:58;;;;;;;5.47;4.13;;;9.20;99.90;;;;;;6230559;28;20049;-82
2023/04/25 02:20:00;;;;;;;4.93;4.43;;;9.20;99.90;;;;;;6230928;28;20038;-81
2023/04/25 02:23:03;;;;;;;4.30;3.90;;;9.30;99.90;;;;;;6235838;28;20052;-81
2023/04/25 02:26:06;;;;;;;5.63;4.72;;;9.30;99.90;;;;;;6250605;28;20414;-81
2023/04/25 02:29:07;;;;;;;6.65;4.43;;;9.30;99.90;;;;;;6251322;28;20053;-81
2023/04/25 02:32:09;;;;;;;4.72;4.22;;;9.30;99.90;;;;;;6252887;28;20045;-81
2023/04/25 02:35:11;;;;;;;4.45;4.05;;;9.30;99.90;;;;;;6252278;28;20049;-81
2023/04/25 02:38:14;;;;;;;4.97;4.35;;;9.40;99.90;;;;;;6250832;28;20046;-80
2023/04/25 02:41:16;;;;;;;7.15;5.13;;;9.40;99.90;;;;;;6250096;28;20068;-80
2023/04/25 02:44:17;;;;;;;6.72;3.65;;;9.40;99.90;;;;;;6250476;28;20049;-80
2023/04/25 02:47:19;;;;;;;4.72;4.00;;;9.40;99.90;;;;;;6249560;28;20049;-80
2023/04/25 02:50:21;;;;;;;4.78;3.05;;;9.40;99.90;;;;;;6228320;28;20045;-80
2023/04/25 02:53:24;;;;;;;6.78;3.53;;;9.50;99.90;;;;;;6225385;28;20049;-80
2023/04/25 02:56:26;;;;;;;4.82;3.88;;;9.40;99.90;;;;;;6226198;28;20050;-80
2023/04/25 02:59:28;;;;;;;3.53;3.22;;;9.40;99.90;;;;;;6247241;28;20046;-80
2023/04/25 03:02:29;;;;;;;5.85;5.40;;;9.40;99.90;;;;;;6249558;28;20429;-80
2023/04/25 03:05:31;;;;;;;5.43;3.97;;;9.40;99.90;;;;;;6250323;28;20496;-80
2023/04/25 03:08:34;;;;;;;3.80;3.40;;;9.40;99.90;;;;;;6254399;28;20455;-80
2023/04/25 03:11:36;;;;;;;4.57;3.53;;;9.40;99.90;;;;;;6256236;28;20540;-84
2023/04/25 03:14:38;;;;;;;4.43;3.83;;;9.30;99.90;;;;;;6259823;28;20045;-81
2023/04/25 03:17:39;;;;;;;4.30;3.90;;;9.30;99.90;;;;;;6258920;28;20052;-80
2023/04/25 03:20:42;;;;;;;5.85;4.25;;;9.30;99.90;;;;;;6259823;28;20064;-81
2023/04/25 03:23:45;;;;;;;4.20;3.50;;;9.30;99.90;;;;;;6252713;28;20045;-81
2023/04/25 03:26:47;;;;;;;5.25;4.07;;;9.30;99.90;;;;;;6235574;28;20046;-80
2023/04/25 03:29:49;;;;;;;5.80;3.95;;;9.30;99.90;;;;;;6236191;28;20136;-80
2023/04/25 03:32:50;;;;;;;4.93;4.43;;;9.30;99.90;;;;;;6236756;28;20046;-80
2023/04/25 03:35:52;;;;;;;8.63;4.65;;;9.30;99.90;;;;;;6235587;28;20056;-80
2023/04/25 03:38:55;;;;;;;5.18;4.68;;;9.20;99.90;;;;;;6236299;28;20057;-80
2023/04/25 03:41:57;;;;;;;5.30;3.50;;;9.20;99.90;;;;;;6238838;28;20043;-81
2023/04/25 03:44:59;;;;;;;7.82;5.03;;;9.20;99.90;;;;;;6232123;28;20058;-83
2023/04/25 03:48:00;;;;;;;3.95;3.65;;;9.20;99.90;;;;;;6233282;28;20050;-83
2023/04/25 03:51:02;;;;;;;5.47;4.65;;;9.10;99.90;;;;;;6231920;28;20046;-83
2023/04/25 03:54:05;;;;;;;5.18;4.53;;;9.10;99.90;;;;;;6231715;28;20523;-83
2023/04/25 03:57:07;;;;;;;4.45;4.05;;;9.10;99.90;;;;;;6231261;28;20061;-83
2023/04/25 04:00:10;;;;;;;8.27;5.38;;;9.10;99.90;;;;;;6232331;28;20050;-83
2023/04/25 04:03:12;;;;;;;7.60;5.18;;;9.10;99.90;;;;;;6231413;28;20046;-83
2023/04/25 04:06:14;;;;;;;6.20;4.32;;;9.00;99.90;;;;;;6234379;28;20053;-83
2023/04/25 04:09:19;;;;;;;5.57;5.05;;;9.00;99.90;;;;;;6233328;28;20061;-83
2023/04/25 04:12:20;;;;;;;6.32;4.63;;;9.00;99.90;;;;;;6230428;28;20046;-82
2023/04/25 04:15:22;;;;;;;6.05;5.10;;;9.00;99.90;;;;;;6228704;28;20046;-83
2023/04/25 04:18:24;;;;;;;7.93;5.53;;;9.00;99.90;;;;;;6231611;28;20042;-83
2023/04/25 04:21:27;;;;;;;5.78;5.22;;;9.00;99.90;;;;;;6232024;28;20053;-83
2023/04/25 04:24:30;;;;;;;7.05;4.68;;;8.90;99.90;;;;;;6230916;28;20046;-83
2023/04/25 04:27:32;;;;;;;9.55;6.13;;;8.90;99.90;;;;;;6231954;28;20050;-82
2023/04/25 04:30:36;;;;;;;5.13;4.63;;;8.80;99.90;;;;;;6232251;28;20172;-82
2023/04/25 04:33:38;;;;;;;5.93;5.32;;;8.80;99.90;;;;;;6231703;28;20046;-82
2023/04/25 04:36:41;;;;;;;5.70;5.20;;;8.80;99.90;;;;;;6233293;28;20053;-83
2023/04/25 04:39:44;;;;;;;7.20;5.18;;;8.80;99.90;;;;;;6233255;28;20046;-82
2023/04/25 04:42:46;;;;;;;5.88;5.03;;;8.80;99.90;;;;;;6233836;28;20050;-83
2023/04/25 04:45:49;;;;;;;5.85;5.28;;;8.80;99.90;;;;;;6233677;28;20393;-82
2023/04/25 04:48:51;;;;;;;6.30;5.70;;;8.80;99.90;;;;;;6232972;28;20049;-82
2023/04/25 04:51:54;;;;;;;6.13;5.53;;;8.70;99.90;;;;;;6230906;28;20073;-82
2023/04/25 04:54:57;;;;;;;6.88;6.00;;;8.80;99.90;;;;;;6245753;28;20213;-82
2023/04/25 04:57:59;;;;;;;7.47;6.72;;;8.80;99.90;;;;;;6261404;28;20079;-85
2023/04/25 05:01:00;;;;;;;8.05;7.30;;;8.80;99.90;;;;;;6263791;28;20303;-82
2023/04/25 05:04:03;;;;;;;10.82;5.70;;;8.90;99.90;;;;;;6261001;28;20053;-82
2023/04/25 05:07:05;;;;;;;5.68;5.05;;;8.90;99.90;;;;;;6256625;28;20046;-83
2023/04/25 05:10:09;;;;;;;6.85;6.15;;;8.80;99.90;;;;;;6257967;28;20057;-83
2023/04/25 05:13:11;;;;;;;6.43;4.88;;;8.90;99.90;;;;;;6258458;28;20052;-82
2023/04/25 05:16:12;;;;;;;9.38;6.50;;;8.90;99.90;;;;;;6258718;28;20060;-83
2023/04/25 05:19:14;;;;;;;7.70;6.90;;;8.90;99.90;;;;;;6259478;28;20051;-83
2023/04/25 05:22:16;;;;;;;5.93;5.30;;;8.90;99.90;;;;;;6257309;28;20042;-83
2023/04/25 05:25:19;;;;;;;6.53;5.80;;;8.90;99.90;;;;;;6256835;28;20064;-83
2023/04/25 05:28:21;;;;;;;6.18;5.57;;;8.90;99.90;;;;;;6258537;28;20053;-81
2023/04/25 05:31:22;;;;;;;9.80;7.25;;;9.00;99.90;;;;;;6259773;28;20049;-81
2023/04/25 05:34:24;;;;;;;6.32;5.30;;;9.00;99.90;;;;;;6258689;28;20045;-82
2023/04/25 05:37:26;;;;;;;11.18;5.78;;;9.10;99.90;;;;;;6255763;28;20120;-82
2023/04/25 05:40:29;;;;;;;7.30;5.78;;;9.20;99.90;;;;;;6256883;28;20076;-82
2023/04/25 05:43:31;;;;;;;6.07;5.47;;;9.30;99.90;;;;;;6256549;28;20045;-83
2023/04/25 05:46:33;;;;;;;6.45;5.72;;;9.50;99.90;;;;;;6257584;28;20061;-83
2023/04/25 05:49:35;;;;;;;8.40;6.05;;;9.50;99.90;;;;;;6253449;28;20044;-81
2023/04/25 05:52:36;;;;;;;6.63;5.75;;;9.60;99.90;;;;;;6254213;28;20041;-82
2023/04/25 05:55:39;;;;;;;8.30;6.05;;;9.70;99.90;;;;;;6253241;28;20045;-82
2023/04/25 05:58:41;;;;;;;6.32;5.50;;;9.70;99.90;;;;;;6253626;28;20056;-82
2023/04/25 06:01:43;;;;;;;6.57;5.95;;;9.70;99.90;;;;;;6258123;28;20048;-83
2023/04/25 06:04:44;;;;;;;7.38;6.05;;;9.70;99.90;;;;;;6259944;28;20053;-84
2023/04/25 06:07:46;;;;;;;6.10;5.50;;;9.70;99.90;;;;;;6257630;28;20046;-83
2023/04/25 06:10:49;;;;;;;8.82;6.07;;;9.80;99.90;;;;;;6256828;28;20054;-83
2023/04/25 06:13:51;;;;;;;5.00;4.50;;;9.80;99.90;;;;;;6254257;28;20046;-82
2023/04/25 06:16:53;;;;;;;8.38;6.18;;;9.80;99.90;;;;;;6254459;28;20053;-82
2023/04/25 06:19:54;;;;;;;7.60;6.40;;;9.80;99.90;;;;;;6254088;28;20046;-82
2023/04/25 06:22:57;;;;;;;8.52;6.72;;;9.80;99.90;;;;;;6254205;28;20176;-81
2023/04/25 06:26:00;;;;;;;7.70;6.47;;;9.70;99.90;;;;;;6228917;28;20508;-83
2023/04/25 06:29:01;;;;;;;7.75;6.28;;;9.70;99.90;;;;;;6230519;28;20481;-83
2023/04/25 06:32:03;;;;;;;10.02;7.40;;;9.70;99.90;;;;;;6232395;28;20068;-82
2023/04/25 06:35:05;;;;;;;13.60;7.03;;;9.70;99.90;;;;;;6231716;28;20042;-82
2023/04/25 06:38:07;;;;;;;9.43;7.65;;;9.70;99.90;;;;;;6230441;28;20053;-82
2023/04/25 06:41:10;;;;;;;12.07;7.82;;;9.70;99.90;;;;;;6230225;28;20052;-82
2023/04/25 06:44:12;;;;;;;7.88;7.07;;;9.70;99.90;;;;;;6229653;28;20049;-82
2023/04/25 06:47:14;;;;;;;7.45;6.65;;;9.70;99.90;;;;;;6231792;28;20136;-82
2023/04/25 06:50:16;;;;;;;11.50;8.50;;;9.70;99.90;;;;;;6212382;28;20069;-82
2023/04/25 06:53:18;;;;;;;10.48;8.15;;;9.70;99.90;;;;;;6226888;28;20046;-82
2023/04/25 06:56:21;;;;;;;10.65;7.97;;;9.80;99.90;;;;;;6226894;28;20089;-81
2023/04/25 06:59:23;;;;;;;10.13;8.52;;;9.80;99.90;;;;;;6227686;28;20054;-82
2023/04/25 07:02:25;;;;;;;10.35;7.53;;;9.80;99.90;;;;;;6227643;28;20042;-82
2023/04/25 07:05:27;;;;;;;12.07;7.80;;;9.80;99.90;;;;;;6242410;28;20064;-83
2023/04/25 07:08:29;;;;;;;9.27;7.65;;;9.80;99.90;;;;;;6251697;28;20046;-82
2023/04/25 07:11:32;;;;;;;10.35;7.82;;;9.80;99.90;;;;;;6251370;28;20049;-82
2023/04/25 07:14:34;;;;;;;11.27;7.13;;;9.80;99.90;;;;;;6246823;28;20057;-82
2023/04/25 07:17:36;;;;;;;10.23;7.68;;;9.80;99.90;;;;;;6249890;28;20041;-82
2023/04/25 07:20:37;;;;;;;8.93;7.50;;;9.70;99.90;;;;;;6249522;28;20053;-82
2023/04/25 07:23:40;;;;;;;8.45;7.53;;;9.70;99.90;;;;;;6248003;28;20053;-83
2023/04/25 07:26:43;;;;;;;9.40;7.88;;;9.70;99.90;;;;;;6248071;28;20052;-82
2023/04/25 07:29:45;;;;;;;10.63;8.00;;;9.70;99.90;;;;;;6247431;28;20048;-81
2023/04/25 07:32:46;;;;;;;9.32;8.13;;;9.70;99.90;;;;;;6250632;28;20057;-82
2023/04/25 07:35:48;;;;;;;9.57;8.57;;;9.70;99.90;;;;;;6252701;28;20056;-82
2023/04/25 07:38:50;;;;;;;8.70;7.80;;;9.70;99.90;;;;;;6252313;28;20068;-82
2023/04/25 07:41:53;;;;;;;8.77;7.03;;;9.60;99.90;;;;;;6252660;28;20052;-81
2023/04/25 07:44:55;;;;;;;8.88;8.00;;;9.60;99.90;;;;;;6250620;28;20065;-81
2023/04/25 07:47:56;;;;;;;10.18;7.80;;;9.60;99.90;;;;;;6252203;28;20049;-82
2023/04/25 07:50:58;;;;;;;8.70;7.30;;;9.50;99.90;;;;;;6251988;28;20050;-80
2023/04/25 07:54:00;;;;;;;11.10;7.95;;;9.50;99.90;;;;;;6254319;28;20049;-82
2023/04/25 07:57:03;;;;;;;15.07;12.75;;;9.40;99.90;;;;;;6256824;28;20514;-81
2023/04/25 08:00:09;;;;;;;10.27;9.20;;;9.40;99.90;;;;;;6257694;28;20053;-81
2023/04/25 08:03:11;;;;;;;12.10;10.80;;;9.30;99.90;;;;;;6256435;28;20038;-80
2023/04/25 08:06:13;;;;;;;12.90;9.70;;;9.30;99.90;;;;;;6256923;28;20057;-80
2023/04/25 08:09:15;;;;;;;9.32;8.32;;;9.30;99.90;;;;;;6259499;28;20446;-81
2023/04/25 08:12:18;;;;;;;12.30;10.48;;;9.30;99.90;;;;;;6258099;28;20049;-81
2023/04/25 08:15:20;;;;;;;11.00;9.45;;;9.30;99.90;;;;;;6255684;28;20057;-80
2023/04/25 08:18:21;;;;;;;10.40;9.30;;;9.30;99.90;;;;;;6253120;28;20050;-81
2023/04/25 08:21:23;;;;;;;12.80;9.88;;;9.30;99.90;;;;;;6254274;28;20045;-83
2023/04/25 08:24:25;;;;;;;17.92;10.73;;;9.30;99.90;;;;;;6245122;28;20056;-81
2023/04/25 08:27:28;;;;;;;13.27;11.07;;;9.30;99.90;;;;;;6232486;28;20424;-81
2023/04/25 08:30:30;;;;;;;16.40;12.57;;;9.40;99.90;;;;;;6232215;28;20046;-81
2023/04/25 08:33:32;;;;;;;14.90;11.02;;;9.30;99.90;;;;;;6232771;28;20077;-81
2023/04/25 08:36:34;;;;;;;12.38;10.60;;;9.30;99.90;;;;;;6232968;28;20049;-81
2023/04/25 08:39:36;;;;;;;14.77;11.57;;;9.20;99.90;;;;;;6232216;28;20060;-82
2023/04/25 08:42:40;;;;;;;13.60;10.93;;;9.20;99.90;;;;;;6232692;28;20045;-81
2023/04/25 08:45:43;;;;;;;14.35;12.13;;;9.20;99.90;;;;;;6240647;28;20045;-81
2023/04/25 08:48:46;;;;;;;16.13;13.35;;;9.20;99.90;;;;;;6230581;28;20053;-82
2023/04/25 08:51:50;;;;;;;20.17;13.23;;;9.20;99.90;;;;;;6233254;28;21404;-81
2023/04/25 08:54:54;;;;;;;14.95;13.05;;;9.20;99.90;;;;;;6253979;28;20053;-83
2023/04/25 08:57:58;;;;;;;19.42;13.98;;;9.30;99.90;;;;;;6258230;28;20053;-82
2023/04/25 09:01:00;;;;;;;20.60;14.02;;;9.30;99.90;;;;;;6225264;28;20436;-82
2023/04/25 09:04:02;;;;;;;18.25;13.90;;;9.40;99.90;;;;;;6226715;28;20052;-81
2023/04/25 09:07:04;;;;;;;18.23;14.60;;;9.50;99.90;;;;;;6241233;28;20050;-81
2023/04/25 09:10:07;;;;;;;19.63;14.32;;;9.50;99.90;;;;;;6258145;28;20095;-84
2023/04/25 09:13:12;;;;;;;20.25;13.75;;;9.50;99.90;;;;;;6256102;28;20053;-83
2023/04/25 09:16:17;;;;;;;19.95;13.80;;;9.60;99.90;;;;;;6255773;28;20063;-83
2023/04/25 09:19:23;;;;;;;17.25;14.02;;;9.60;99.90;;;;;;6256206;28;20089;-81
2023/04/25 09:22:25;;;;;;;15.90;13.85;;;9.60;99.90;;;;;;6252351;28;20445;-81
2023/04/25 09:25:26;;;;;;;22.63;14.93;;;9.70;99.90;;;;;;6238047;28;20068;-82
2023/04/25 09:28:29;;;;;;;18.83;14.13;;;9.70;99.90;;;;;;6254927;28;20464;-82
2023/04/25 09:31:34;;;;;;;16.85;13.20;;;9.80;99.90;;;;;;6254009;28;20408;-81
2023/04/25 09:34:40;;;;;;;17.95;14.05;;;9.80;99.90;;;;;;6254329;28;20415;-82
2023/04/25 09:37:42;;;;;;;17.30;13.05;;;9.80;99.90;;;;;;6253755;28;20099;-82
2023/04/25 09:40:44;;;;;;;22.17;13.63;;;9.80;99.90;;;;;;6254214;28;20056;-82
2023/04/25 09:43:50;;;;;;;17.00;13.82;;;9.90;99.90;;;;;;6253159;28;20065;-81
2023/04/25 09:46:53;;;;;;;19.98;15.15;;;9.90;99.90;;;;;;6254258;28;20057;-82
2023/04/25 09:49:55;;;;;;;16.60;14.55;;;10.00;99.90;;;;;;6254237;28;20426;-82
2023/04/25 09:53:04;;;;;;;16.10;13.77;;;10.00;99.90;;;;;;6250627;28;20050;-82
2023/04/25 09:56:07;;;;;;;17.25;14.95;;;10.00;99.90;;;;;;6233549;28;20066;-83
2023/04/25 09:59:12;;;;;;;21.83;13.95;;;10.10;99.90;;;;;;6230124;28;20057;-82
2023/04/25 10:02:18;;;;;;;20.23;16.13;;;10.10;99.90;;;;;;6228759;28;20152;-81
2023/04/25 10:05:21;;;;;;;22.00;13.02;;;10.10;99.90;;;;;;6226310;28;20096;-80
2023/04/25 10:08:26;;;;;;;18.67;11.95;;;9.90;99.90;;;;;;6227263;28;20061;-81
2023/04/25 10:11:33;;;;;;;14.13;11.32;;;9.60;99.90;;;;;;6230033;28;20508;-83
2023/04/25 10:14:37;;;;;;;16.02;10.18;;;9.30;99.90;;;;;;6232150;28;20069;-80
2023/04/25 10:17:40;;;;;;;10.80;8.07;;;9.10;99.90;;;;;;6225406;28;20057;-82
2023/04/25 10:20:41;;;;;;;15.35;10.13;;;9.00;99.90;;;;;;6225803;28;20049;-80
2023/04/25 10:23:43;;;;;;;12.25;9.32;;;8.80;99.90;;;;;;6227825;28;20045;-80
2023/04/25 10:26:45;;;;;;;14.15;10.70;;;8.70;99.90;;;;;;6251553;28;20053;-82
2023/04/25 10:30:03;;;;;;;12.27;10.07;;;8.60;99.90;;;;;;6253077;28;20052;-81
2023/04/25 10:33:17;;;;;;;15.68;12.80;;;8.50;99.90;;;;;;6253837;28;20061;-82
2023/04/25 10:36:22;;;;;;;21.65;13.30;;;8.50;99.90;;;;;;6254086;28;20056;-81
2023/04/25 10:39:25;;;;;;;15.77;12.95;;;8.60;99.90;;;;;;6254443;28;20041;-82
2023/04/25 10:42:27;;;;;;;17.30;13.35;;;8.60;99.90;;;;;;6253129;28;20057;-82
2023/04/25 10:45:30;;;;;;;16.48;12.02;;;8.70;99.90;;;;;;6253308;28;20049;-82
2023/04/25 10:48:32;;;;;;;18.48;13.82;;;8.70;99.90;;;;;;6255467;28;20049;-81
2023/04/25 10:51:35;;;;;;;21.40;14.38;;;8.70;99.90;;;;;;6254205;28;20048;-81
2023/04/25 10:54:41;;;;;;;18.08;11.70;;;8.70;99.90;;;;;;6235823;28;20135;-81
2023/04/25 10:57:46;;;;;;;17.88;13.10;;;8.60;99.90;;;;;;6233109;28;20073;-82
2023/04/25 11:00:50;;;;;;;25.08;13.13;;;8.50;99.90;;;;;;6230255;28;20054;-81
2023/04/25 11:03:58;;;;;;;19.38;11.88;;;8.40;99.90;;;;;;6235519;28;20045;-80
2023/04/25 11:07:10;;;;;;;19.70;14.27;;;8.30;99.90;;;;;;6242174;28;20851;-81
2023/04/25 11:10:12;;;;;;;18.50;11.10;;;8.30;99.90;;;;;;6251399;28;20447;-80
2023/04/25 11:13:14;;;;;;;20.58;12.30;;;8.30;99.90;;;;;;6253975;28;20058;-82
2023/04/25 11:16:17;;;;;;;19.50;11.68;;;8.20;99.90;;;;;;6254449;28;20395;-82
2023/04/25 11:19:20;;;;;;;24.38;13.32;;;8.10;99.90;;;;;;6255883;28;20049;-81
2023/04/25 11:22:23;;;;;;;19.55;13.07;;;8.00;99.90;;;;;;6255359;28;20054;-81
2023/04/25 11:25:26;;;;;;;21.33;13.60;;;8.10;99.90;;;;;;6229969;28;20045;-82
2023/04/25 11:28:28;;;;;;;23.55;13.88;;;8.10;99.90;;;;;;6233022;28;20050;-81
2023/04/25 11:31:31;;;;;;;22.13;13.02;;;8.20;99.90;;;;;;6236687;28;20049;-81
2023/04/25 11:34:34;;;;;;;23.27;13.90;;;8.20;99.90;;;;;;6237413;28;20049;-82
2023/04/25 11:37:36;;;;;;;22.05;13.55;;;8.20;99.90;;;;;;6236782;28;20049;-81
2023/04/25 11:40:37;;;;;;;18.30;12.90;;;8.20;99.90;;;;;;6236269;28;20113;-81
2023/04/25 11:43:39;;;;;;;22.40;14.93;;;8.30;99.90;;;;;;6230945;28;20054;-83
2023/04/25 11:46:43;;;;;;;24.98;15.93;;;8.40;99.90;;;;;;6239854;28;20061;-81
2023/04/25 11:49:44;;;;;;;21.77;13.35;;;8.40;99.90;;;;;;6246603;28;20050;-83
2023/04/25 11:52:48;;;;;;;21.92;14.40;;;8.40;99.90;;;;;;6247917;28;20084;-81
2023/04/25 11:55:49;;;;;;;22.23;13.63;;;8.50;99.90;;;;;;6259698;28;20041;-83
2023/04/25 11:58:59;;;;;;;20.83;14.10;;;8.50;99.90;;;;;;6254471;28;20041;-83
2023/04/25 12:02:02;;;;;;;18.77;12.93;;;8.50;99.90;;;;;;6259864;28;20060;-83
2023/04/25 12:05:08;;;;;;;17.85;13.07;;;8.50;99.90;;;;;;6258706;28;20240;-82
2023/04/25 12:08:14;;;;;;;20.13;14.63;;;8.50;99.90;;;;;;6261990;28;20107;-83
2023/04/25 12:11:21;;;;;;;24.48;14.82;;;8.50;99.90;;;;;;6265717;28;20064;-83
2023/04/25 12:14:24;;;;;;;23.70;14.20;;;8.60;99.90;;;;;;6263149;28;20048;-83
2023/04/25 12:17:29;;;;;;;22.42;16.13;;;8.70;99.90;;;;;;6246232;28;20053;-83
2023/04/25 12:20:32;;;;;;;17.02;13.75;;;8.90;99.90;;;;;;6248063;28;20594;-81
2023/04/25 12:23:34;;;;;;;19.25;13.55;;;9.00;99.90;;;;;;6244298;28;20057;-82
2023/04/25 12:26:47;;;;;;;21.08;14.80;;;9.10;99.90;;;;;;6243201;28;20042;-82
2023/04/25 12:29:53;;;;;;;24.08;15.00;;;9.20;99.90;;;;;;6243219;28;20053;-82
2023/04/25 12:32:56;;;;;;;20.17;14.00;;;9.30;99.90;;;;;;6246338;28;20057;-82
2023/04/25 12:35:58;;;;;;;19.42;14.52;;;9.50;99.90;;;;;;6245886;28;20045;-81
2023/04/25 12:39:03;;;;;;;18.83;12.77;;;9.50;99.90;;;;;;6245001;28;20488;-82
2023/04/25 12:42:07;;;;;;;20.33;13.27;;;9.70;99.90;;;;;;6243606;28;20123;-82
2023/04/25 12:45:09;;;;;;;21.15;13.93;;;9.80;99.90;;;;;;6247397;28;20044;-80
2023/04/25 12:48:12;;;;;;;18.65;11.45;;;10.00;99.90;;;;;;6251288;28;20512;-83
2023/04/25 12:51:14;;;;;;;18.95;11.00;;;10.10;99.90;;;;;;6249956;28;20057;-80
2023/04/25 12:54:16;;;;;;;14.32;10.00;;;10.00;99.90;;;;;;6245144;28;20061;-82
2023/04/25 12:57:17;;;;;;;15.82;11.07;;;10.00;99.90;;;;;;6248760;28;20057;-84
2023/04/25 13:00:20;;;;;;;12.27;9.45;;;10.00;99.90;;;;;;6247974;28;20052;-83
2023/04/25 13:03:23;;;;;;;12.52;8.65;;;10.00;99.90;;;;;;6248307;28;20121;-81
2023/04/25 13:06:26;;;;;;;14.00;9.73;;;10.00;99.90;;;;;;6245167;28;20161;-80
2023/04/25 13:09:27;;;;;;;11.45;9.38;;;9.90;99.90;;;;;;6242299;28;20235;-81
2023/04/25 13:12:30;;;;;;;14.00;9.55;;;10.00;99.90;;;;;;6240749;28;20053;-81
2023/04/25 13:15:32;;;;;;;14.63;9.60;;;10.10;99.90;;;;;;6240332;28;20065;-81
2023/04/25 13:18:35;;;;;;;12.13;9.38;;;10.20;99.90;;;;;;6239088;28;20528;-83
2023/04/25 13:21:37;;;;;;;14.93;8.90;;;10.30;99.90;;;;;;6242956;28;20044;-82
2023/04/25 13:24:39;;;;;;;12.57;8.82;;;10.60;99.90;;;;;;6239196;28;20052;-81
2023/04/25 13:27:40;;;;;;;10.05;7.90;;;10.70;99.90;;;;;;6236071;28;20049;-81
2023/04/25 13:30:43;;;;;;;9.32;7.38;;;10.70;99.90;;;;;;6241896;28;20083;-82
2023/04/25 13:33:46;;;;;;;8.98;6.28;;;10.90;99.90;;;;;;6238196;28;20050;-82
2023/04/25 13:36:48;;;;;;;8.02;5.78;;;11.20;99.90;;;;;;6240401;28;20046;-81
2023/04/25 13:39:50;;;;;;;9.15;6.32;;;11.50;99.90;;;;;;6241486;28;20049;-81
2023/04/25 13:42:52;;;;;;;6.47;5.22;;;11.90;99.90;;;;;;6238680;28;20415;-82
2023/04/25 13:45:54;;;;;;;5.10;3.75;;;12.10;99.90;;;;;;6238160;28;20042;-81
2023/04/25 13:48:57;;;;;;;3.92;3.53;;;12.50;99.90;;;;;;6239892;28;20419;-83
2023/04/25 13:51:58;;;;;;;4.55;3.47;;;13.00;99.90;;;;;;6238530;28;21109;-81
2023/04/25 13:55:03;;;;;;;2.78;2.45;;;13.40;99.90;;;;;;6235281;28;20345;-83
2023/04/25 13:58:07;;;;;;;2.55;2.35;;;13.70;99.90;;;;;;6238265;28;20049;-83
2023/04/25 14:01:09;;;;;;;3.67;3.13;;;13.80;99.90;;;;;;6236352;28;20062;-82
2023/04/25 14:04:11;;;;;;;3.28;2.67;;;13.90;99.90;;;;;;6239645;28;20049;-84
2023/04/25 14:07:15;;;;;;;8.88;5.80;;;13.90;99.90;;;;;;6240679;28;20056;-81
2023/04/25 14:10:17;;;;;;;4.30;3.00;;;13.90;99.90;;;;;;6239180;28;20109;-83
2023/04/25 14:13:19;;;;;;;4.55;2.92;;;14.00;99.90;;;;;;6241112;28;20424;-83
2023/04/25 14:16:22;;;;;;;4.03;3.72;;;14.00;99.90;;;;;;6237817;28;20416;-82
2023/04/25 14:19:25;;;;;;;4.63;3.33;;;14.10;99.90;;;;;;6239953;28;20064;-85
2023/04/25 14:22:27;;;;;;;3.92;3.15;;;14.30;99.90;;;;;;6241405;28;20052;-83
2023/04/25 14:25:30;;;;;;;4.07;3.13;;;14.40;99.90;;;;;;6235981;28;20056;-83
2023/04/25 14:28:32;;;;;;;6.55;3.13;;;14.80;99.90;;;;;;6239777;28;20060;-83
2023/04/25 14:31:34;;;;;;;4.10;3.42;;;15.00;99.90;;;;;;6240189;28;20123;-83
2023/04/25 14:34:37;;;;;;;5.22;2.65;;;15.20;99.90;;;;;;6239263;28;20492;-83
2023/04/25 14:37:39;;;;;;;6.03;3.40;;;15.20;99.90;;;;;;6239204;28;20068;-82
2023/04/25 14:40:40;;;;;;;6.05;3.63;;;15.20;99.90;;;;;;6237810;28;20058;-82
2023/04/25 14:43:42;;;;;;;3.85;3.42;;;15.10;99.90;;;;;;6238956;28;20082;-82
2023/04/25 14:46:44;;;;;;;5.20;3.15;;;15.00;99.90;;;;;;6241320;28;20072;-80
2023/04/25 14:49:53;;;;;;;2.75;2.55;;;14.90;99.90;;;;;;6239093;28;20041;-82
2023/04/25 14:52:58;;;;;;;5.15;3.05;;;14.70;99.90;;;;;;6238668;28;20144;-83
2023/04/25 14:56:00;;;;;;;7.20;2.70;;;14.40;99.90;;;;;;6235420;28;20038;-82
2023/04/25 14:59:01;;;;;;;3.20;2.85;;;14.20;99.90;;;;;;6237075;28;20127;-82
2023/04/25 15:02:03;;;;;;;5.40;2.70;;;14.00;99.90;;;;;;6241006;28;20049;-83
2023/04/25 15:05:08;;;;;;;4.93;3.17;;;13.80;99.90;;;;;;6252584;28;20051;-81
2023/04/25 15:08:10;;;;;;;5.55;3.65;;;13.60;99.90;;;;;;6248236;28;20056;-82
2023/04/25 15:11:11;;;;;;;8.23;3.80;;;13.40;99.90;;;;;;6243118;28;20068;-82
2023/04/25 15:14:13;;;;;;;6.35;4.72;;;13.20;99.90;;;;;;6245572;28;20627;-82
2023/04/25 15:17:15;;;;;;;5.88;3.00;;;13.00;99.90;;;;;;6246254;28;20056;-82
2023/04/25 15:20:18;;;;;;;3.75;3.38;;;12.90;99.90;;;;;;6244549;28;20103;-82
2023/04/25 15:23:21;;;;;;;7.40;3.22;;;12.80;99.90;;;;;;6246634;28;20049;-82
2023/04/25 15:26:22;;;;;;;4.05;3.75;;;12.70;99.90;;;;;;6242758;28;20052;-81
2023/04/25 15:29:24;;;;;;;4.97;4.55;;;12.60;99.90;;;;;;6228085;28;20042;-80
2023/04/25 15:32:26;;;;;;;6.20;4.65;;;12.40;99.90;;;;;;6244839;28;20045;-82
2023/04/25 15:39:22;;;;;;;9.90;5.75;;;11.90;99.90;;;;;;6249308;28;20053;-81
2023/04/25 15:42:25;;;;;;;6.47;4.72;;;11.60;99.90;;;;;;6246362;28;20053;-82
2023/04/25 15:45:27;;;;;;;7.53;6.82;;;11.10;99.90;;;;;;6244104;28;20053;-82
2023/04/25 15:48:28;;;;;;;7.40;5.03;;;10.60;99.90;;;;;;6243673;28;20045;-80
2023/04/25 15:54:53;;;;;;;7.55;4.97;;;9.80;99.90;;;;;;6242625;28;20459;-80
2023/04/25 15:57:55;;;;;;;13.25;11.68;;;9.60;99.90;;;;;;6241141;28;20054;-81